sensor_id;sensor_type;location;lat;lon;timestamp;P1;durP1;ratioP1;P2;durP2;ratioP2
63699;SDS011;49845;47.130;142.766;2023-07-16T00:02:03;8.77;;;3.00;;
63699;SDS011;49845;47.130;142.766;2023-07-16T00:04:34;11.30;;;2.60;;
63699;SDS011;49845;47.130;142.766;2023-07-16T00:07:08;7.70;;;2.87;;
63699;SDS011;49845;47.130;142.766;2023-07-16T00:09:38;6.40;;;2.80;;
63699;SDS011;49845;47.130;142.766;2023-07-16T00:12:09;7.17;;;2.80;;
63699;SDS011;49845;47.130;142.766;2023-07-16T00:14:41;7.20;;;2.27;;
63699;SDS011;49845;47.130;142.766;2023-07-16T00:17:12;9.20;;;2.97;;
63699;SDS011;49845;47.130;142.766;2023-07-16T00:19:42;11.33;;;3.03;;
63699;SDS011;49845;47.130;142.766;2023-07-16T00:22:13;6.53;;;2.73;;
63699;SDS011;49845;47.130;142.766;2023-07-16T00:24:43;5.10;;;2.53;;
63699;SDS011;49845;47.130;142.766;2023-07-16T00:27:14;4.37;;;2.17;;
63699;SDS011;49845;47.130;142.766;2023-07-16T00:29:46;6.63;;;2.97;;
63699;SDS011;49845;47.130;142.766;2023-07-16T00:32:17;5.90;;;3.10;;
63699;SDS011;49845;47.130;142.766;2023-07-16T00:34:47;7.33;;;2.90;;
63699;SDS011;49845;47.130;142.766;2023-07-16T00:37:18;6.10;;;2.43;;
63699;SDS011;49845;47.130;142.766;2023-07-16T00:39:48;8.00;;;2.80;;
63699;SDS011;49845;47.130;142.766;2023-07-16T00:42:19;8.43;;;3.20;;
63699;SDS011;49845;47.130;142.766;2023-07-16T00:44:51;7.57;;;3.03;;
63699;SDS011;49845;47.130;142.766;2023-07-16T00:47:21;8.27;;;3.65;;
63699;SDS011;49845;47.130;142.766;2023-07-16T00:49:52;7.87;;;3.73;;
63699;SDS011;49845;47.130;142.766;2023-07-16T00:52:23;5.50;;;2.90;;
63699;SDS011;49845;47.130;142.766;2023-07-16T00:54:56;6.10;;;3.07;;
63699;SDS011;49845;47.130;142.766;2023-07-16T00:57:27;7.13;;;3.33;;
63699;SDS011;49845;47.130;142.766;2023-07-16T01:00:03;7.33;;;3.20;;
63699;SDS011;49845;47.130;142.766;2023-07-16T01:02:34;6.77;;;2.97;;
63699;SDS011;49845;47.130;142.766;2023-07-16T01:05:05;10.63;;;2.90;;
63699;SDS011;49845;47.130;142.766;2023-07-16T01:07:36;13.73;;;3.40;;
63699;SDS011;49845;47.130;142.766;2023-07-16T01:10:11;10.57;;;3.40;;
63699;SDS011;49845;47.130;142.766;2023-07-16T01:12:42;6.17;;;2.90;;
63699;SDS011;49845;47.130;142.766;2023-07-16T01:15:14;7.17;;;2.27;;
63699;SDS011;49845;47.130;142.766;2023-07-16T01:17:45;4.20;;;2.40;;
63699;SDS011;49845;47.130;142.766;2023-07-16T01:20:16;7.23;;;2.70;;
63699;SDS011;49845;47.130;142.766;2023-07-16T01:22:55;3.73;;;2.50;;
63699;SDS011;49845;47.130;142.766;2023-07-16T01:25:45;4.53;;;1.90;;
63699;SDS011;49845;47.130;142.766;2023-07-16T01:31:37;3.03;;;2.27;;
63699;SDS011;49845;47.130;142.766;2023-07-16T01:34:09;6.20;;;2.10;;
63699;SDS011;49845;47.130;142.766;2023-07-16T01:36:41;6.50;;;2.60;;
63699;SDS011;49845;47.130;142.766;2023-07-16T01:39:13;5.77;;;2.60;;
63699;SDS011;49845;47.130;142.766;2023-07-16T01:41:44;5.63;;;2.27;;
63699;SDS011;49845;47.130;142.766;2023-07-16T01:44:16;4.53;;;2.63;;
63699;SDS011;49845;47.130;142.766;2023-07-16T01:46:49;5.47;;;2.20;;
63699;SDS011;49845;47.130;142.766;2023-07-16T01:49:34;4.53;;;2.57;;
63699;SDS011;49845;47.130;142.766;2023-07-16T01:52:06;5.27;;;2.90;;
63699;SDS011;49845;47.130;142.766;2023-07-16T01:54:37;4.77;;;2.70;;
63699;SDS011;49845;47.130;142.766;2023-07-16T01:57:08;3.47;;;2.30;;
63699;SDS011;49845;47.130;142.766;2023-07-16T01:59:40;4.00;;;2.63;;
63699;SDS011;49845;47.130;142.766;2023-07-16T02:02:10;4.10;;;2.00;;
63699;SDS011;49845;47.130;142.766;2023-07-16T02:04:41;4.57;;;2.50;;
63699;SDS011;49845;47.130;142.766;2023-07-16T02:07:11;5.73;;;1.90;;
63699;SDS011;49845;47.130;142.766;2023-07-16T02:09:42;5.50;;;2.10;;
63699;SDS011;49845;47.130;142.766;2023-07-16T02:12:13;5.77;;;1.87;;
63699;SDS011;49845;47.130;142.766;2023-07-16T02:14:45;4.70;;;2.13;;
63699;SDS011;49845;47.130;142.766;2023-07-16T02:17:16;5.10;;;2.23;;
63699;SDS011;49845;47.130;142.766;2023-07-16T02:19:46;5.43;;;2.40;;
63699;SDS011;49845;47.130;142.766;2023-07-16T02:22:17;9.93;;;2.20;;
63699;SDS011;49845;47.130;142.766;2023-07-16T02:24:49;4.70;;;2.33;;
63699;SDS011;49845;47.130;142.766;2023-07-16T02:27:19;8.13;;;2.17;;
63699;SDS011;49845;47.130;142.766;2023-07-16T02:29:51;5.07;;;2.07;;
63699;SDS011;49845;47.130;142.766;2023-07-16T02:32:22;4.07;;;1.57;;
63699;SDS011;49845;47.130;142.766;2023-07-16T02:34:53;7.87;;;2.10;;
63699;SDS011;49845;47.130;142.766;2023-07-16T02:37:23;5.37;;;2.00;;
63699;SDS011;49845;47.130;142.766;2023-07-16T02:39:54;3.43;;;1.90;;
63699;SDS011;49845;47.130;142.766;2023-07-16T02:42:24;5.53;;;2.10;;
63699;SDS011;49845;47.130;142.766;2023-07-16T02:44:57;2.50;;;1.67;;
63699;SDS011;49845;47.130;142.766;2023-07-16T02:47:27;4.13;;;2.40;;
63699;SDS011;49845;47.130;142.766;2023-07-16T02:49:58;7.33;;;2.27;;
63699;SDS011;49845;47.130;142.766;2023-07-16T02:52:29;9.30;;;3.10;;
63699;SDS011;49845;47.130;142.766;2023-07-16T02:54:59;8.27;;;2.57;;
63699;SDS011;49845;47.130;142.766;2023-07-16T02:57:30;6.10;;;2.17;;
63699;SDS011;49845;47.130;142.766;2023-07-16T03:00:03;5.13;;;2.00;;
63699;SDS011;49845;47.130;142.766;2023-07-16T03:02:35;6.90;;;2.70;;
63699;SDS011;49845;47.130;142.766;2023-07-16T03:05:06;6.60;;;2.83;;
63699;SDS011;49845;47.130;142.766;2023-07-16T03:07:37;12.50;;;2.57;;
63699;SDS011;49845;47.130;142.766;2023-07-16T03:10:08;5.37;;;2.40;;
63699;SDS011;49845;47.130;142.766;2023-07-16T03:12:39;7.70;;;2.37;;
63699;SDS011;49845;47.130;142.766;2023-07-16T03:15:12;6.57;;;2.60;;
63699;SDS011;49845;47.130;142.766;2023-07-16T03:17:42;7.97;;;3.03;;
63699;SDS011;49845;47.130;142.766;2023-07-16T03:20:13;7.80;;;2.90;;
63699;SDS011;49845;47.130;142.766;2023-07-16T03:22:43;3.93;;;2.30;;
63699;SDS011;49845;47.130;142.766;2023-07-16T03:25:14;5.37;;;2.67;;
63699;SDS011;49845;47.130;142.766;2023-07-16T03:27:44;5.47;;;2.53;;
63699;SDS011;49845;47.130;142.766;2023-07-16T03:30:17;4.77;;;2.23;;
63699;SDS011;49845;47.130;142.766;2023-07-16T03:32:47;7.97;;;2.40;;
63699;SDS011;49845;47.130;142.766;2023-07-16T03:35:19;6.43;;;2.40;;
63699;SDS011;49845;47.130;142.766;2023-07-16T03:37:52;4.73;;;2.13;;
63699;SDS011;49845;47.130;142.766;2023-07-16T03:40:23;5.57;;;2.53;;
63699;SDS011;49845;47.130;142.766;2023-07-16T03:42:54;8.13;;;2.50;;
63699;SDS011;49845;47.130;142.766;2023-07-16T03:45:27;6.30;;;2.20;;
63699;SDS011;49845;47.130;142.766;2023-07-16T03:47:57;6.40;;;2.43;;
63699;SDS011;49845;47.130;142.766;2023-07-16T03:50:28;6.13;;;2.77;;
63699;SDS011;49845;47.130;142.766;2023-07-16T03:52:59;7.33;;;3.40;;
63699;SDS011;49845;47.130;142.766;2023-07-16T03:55:31;23.73;;;3.20;;
63699;SDS011;49845;47.130;142.766;2023-07-16T03:58:01;7.00;;;2.30;;
63699;SDS011;49845;47.130;142.766;2023-07-16T04:00:35;10.57;;;2.80;;
63699;SDS011;49845;47.130;142.766;2023-07-16T04:03:05;6.90;;;3.00;;
63699;SDS011;49845;47.130;142.766;2023-07-16T04:05:37;15.40;;;3.30;;
63699;SDS011;49845;47.130;142.766;2023-07-16T04:08:07;5.80;;;2.10;;
63699;SDS011;49845;47.130;142.766;2023-07-16T04:10:38;7.67;;;2.53;;
63699;SDS011;49845;47.130;142.766;2023-07-16T04:13:09;5.23;;;2.63;;
63699;SDS011;49845;47.130;142.766;2023-07-16T04:15:44;11.60;;;3.47;;
63699;SDS011;49845;47.130;142.766;2023-07-16T04:18:15;6.50;;;2.83;;
63699;SDS011;49845;47.130;142.766;2023-07-16T04:20:46;9.07;;;2.53;;
63699;SDS011;49845;47.130;142.766;2023-07-16T04:23:16;7.37;;;2.80;;
63699;SDS011;49845;47.130;142.766;2023-07-16T04:25:51;6.30;;;2.77;;
63699;SDS011;49845;47.130;142.766;2023-07-16T04:28:22;6.20;;;2.90;;
63699;SDS011;49845;47.130;142.766;2023-07-16T04:30:54;8.43;;;3.20;;
63699;SDS011;49845;47.130;142.766;2023-07-16T04:33:25;7.20;;;3.57;;
63699;SDS011;49845;47.130;142.766;2023-07-16T04:35:55;10.73;;;3.03;;
63699;SDS011;49845;47.130;142.766;2023-07-16T04:38:26;6.23;;;3.00;;
63699;SDS011;49845;47.130;142.766;2023-07-16T04:40:56;3.93;;;2.93;;
63699;SDS011;49845;47.130;142.766;2023-07-16T04:43:27;9.73;;;3.20;;
63699;SDS011;49845;47.130;142.766;2023-07-16T04:45:59;7.17;;;3.10;;
63699;SDS011;49845;47.130;142.766;2023-07-16T04:48:30;5.17;;;2.90;;
63699;SDS011;49845;47.130;142.766;2023-07-16T04:51:00;7.70;;;3.47;;
63699;SDS011;49845;47.130;142.766;2023-07-16T04:53:31;8.97;;;3.07;;
63699;SDS011;49845;47.130;142.766;2023-07-16T04:56:01;9.00;;;2.97;;
63699;SDS011;49845;47.130;142.766;2023-07-16T04:58:32;8.43;;;2.87;;
63699;SDS011;49845;47.130;142.766;2023-07-16T05:01:04;5.17;;;2.87;;
63699;SDS011;49845;47.130;142.766;2023-07-16T05:03:35;5.70;;;2.40;;
63699;SDS011;49845;47.130;142.766;2023-07-16T05:06:06;4.87;;;2.90;;
63699;SDS011;49845;47.130;142.766;2023-07-16T05:08:37;4.50;;;2.60;;
63699;SDS011;49845;47.130;142.766;2023-07-16T05:11:07;5.30;;;2.60;;
63699;SDS011;49845;47.130;142.766;2023-07-16T05:13:39;5.83;;;2.40;;
63699;SDS011;49845;47.130;142.766;2023-07-16T05:16:13;7.77;;;2.90;;
63699;SDS011;49845;47.130;142.766;2023-07-16T05:18:44;5.43;;;2.60;;
63699;SDS011;49845;47.130;142.766;2023-07-16T05:21:18;7.53;;;2.20;;
63699;SDS011;49845;47.130;142.766;2023-07-16T05:23:52;4.73;;;2.07;;
63699;SDS011;49845;47.130;142.766;2023-07-16T05:26:23;6.20;;;2.67;;
63699;SDS011;49845;47.130;142.766;2023-07-16T05:28:54;4.47;;;1.87;;
63699;SDS011;49845;47.130;142.766;2023-07-16T05:31:26;4.87;;;2.20;;
63699;SDS011;49845;47.130;142.766;2023-07-16T05:33:58;3.00;;;1.80;;
63699;SDS011;49845;47.130;142.766;2023-07-16T05:36:28;4.97;;;2.20;;
63699;SDS011;49845;47.130;142.766;2023-07-16T05:38:59;6.03;;;1.90;;
63699;SDS011;49845;47.130;142.766;2023-07-16T05:41:30;3.90;;;2.00;;
63699;SDS011;49845;47.130;142.766;2023-07-16T05:44:00;10.67;;;2.27;;
63699;SDS011;49845;47.130;142.766;2023-07-16T05:46:32;2.50;;;1.40;;
63699;SDS011;49845;47.130;142.766;2023-07-16T05:49:03;3.37;;;1.60;;
63699;SDS011;49845;47.130;142.766;2023-07-16T05:51:34;4.70;;;2.13;;
63699;SDS011;49845;47.130;142.766;2023-07-16T05:54:08;4.60;;;2.20;;
63699;SDS011;49845;47.130;142.766;2023-07-16T05:56:41;5.90;;;1.50;;
63699;SDS011;49845;47.130;142.766;2023-07-16T05:59:13;3.90;;;1.60;;
63699;SDS011;49845;47.130;142.766;2023-07-16T06:01:45;8.17;;;2.30;;
63699;SDS011;49845;47.130;142.766;2023-07-16T06:04:17;3.20;;;1.50;;
63699;SDS011;49845;47.130;142.766;2023-07-16T06:06:47;4.80;;;1.80;;
63699;SDS011;49845;47.130;142.766;2023-07-16T06:09:19;4.57;;;1.70;;
63699;SDS011;49845;47.130;142.766;2023-07-16T06:11:52;5.23;;;2.07;;
63699;SDS011;49845;47.130;142.766;2023-07-16T06:14:23;6.23;;;2.03;;
63699;SDS011;49845;47.130;142.766;2023-07-16T06:16:55;5.37;;;2.40;;
63699;SDS011;49845;47.130;142.766;2023-07-16T06:19:26;5.07;;;1.60;;
63699;SDS011;49845;47.130;142.766;2023-07-16T06:21:57;4.43;;;1.67;;
63699;SDS011;49845;47.130;142.766;2023-07-16T06:24:28;5.60;;;1.93;;
63699;SDS011;49845;47.130;142.766;2023-07-16T06:26:58;6.23;;;2.03;;
63699;SDS011;49845;47.130;142.766;2023-07-16T06:29:29;4.23;;;1.80;;
63699;SDS011;49845;47.130;142.766;2023-07-16T06:32:01;3.93;;;2.00;;
63699;SDS011;49845;47.130;142.766;2023-07-16T06:34:32;3.87;;;1.90;;
63699;SDS011;49845;47.130;142.766;2023-07-16T06:37:03;4.33;;;2.00;;
63699;SDS011;49845;47.130;142.766;2023-07-16T06:39:34;3.37;;;2.40;;
63699;SDS011;49845;47.130;142.766;2023-07-16T06:42:05;6.73;;;2.20;;
63699;SDS011;49845;47.130;142.766;2023-07-16T06:44:36;2.67;;;1.73;;
63699;SDS011;49845;47.130;142.766;2023-07-16T06:47:08;6.73;;;2.43;;
63699;SDS011;49845;47.130;142.766;2023-07-16T06:49:39;4.87;;;1.93;;
63699;SDS011;49845;47.130;142.766;2023-07-16T06:52:18;5.20;;;1.70;;
63699;SDS011;49845;47.130;142.766;2023-07-16T06:57:19;3.20;;;1.60;;
63699;SDS011;49845;47.130;142.766;2023-07-16T06:59:49;2.40;;;1.50;;
63699;SDS011;49845;47.130;142.766;2023-07-16T07:02:22;6.30;;;1.70;;
63699;SDS011;49845;47.130;142.766;2023-07-16T07:04:56;1.83;;;1.33;;
63699;SDS011;49845;47.130;142.766;2023-07-16T07:07:28;5.07;;;1.80;;
63699;SDS011;49845;47.130;142.766;2023-07-16T07:09:58;2.87;;;1.40;;
63699;SDS011;49845;47.130;142.766;2023-07-16T07:12:29;5.03;;;1.60;;
63699;SDS011;49845;47.130;142.766;2023-07-16T07:15:05;2.10;;;1.60;;
63699;SDS011;49845;47.130;142.766;2023-07-16T07:17:38;4.90;;;1.83;;
63699;SDS011;49845;47.130;142.766;2023-07-16T07:20:10;3.47;;;1.53;;
63699;SDS011;49845;47.130;142.766;2023-07-16T07:22:43;2.90;;;1.40;;
63699;SDS011;49845;47.130;142.766;2023-07-16T07:25:14;2.10;;;1.50;;
63699;SDS011;49845;47.130;142.766;2023-07-16T07:27:44;2.53;;;1.40;;
63699;SDS011;49845;47.130;142.766;2023-07-16T07:30:15;2.27;;;1.53;;
63699;SDS011;49845;47.130;142.766;2023-07-16T07:32:48;4.67;;;1.80;;
63699;SDS011;49845;47.130;142.766;2023-07-16T07:35:18;3.17;;;1.50;;
63699;SDS011;49845;47.130;142.766;2023-07-16T07:37:49;4.17;;;1.70;;
63699;SDS011;49845;47.130;142.766;2023-07-16T07:40:19;2.47;;;1.63;;
63699;SDS011;49845;47.130;142.766;2023-07-16T07:42:50;4.90;;;1.37;;
63699;SDS011;49845;47.130;142.766;2023-07-16T07:45:21;4.60;;;1.40;;
63699;SDS011;49845;47.130;142.766;2023-07-16T07:47:54;4.13;;;1.40;;
63699;SDS011;49845;47.130;142.766;2023-07-16T07:50:25;6.07;;;1.50;;
63699;SDS011;49845;47.130;142.766;2023-07-16T07:52:56;2.37;;;1.30;;
63699;SDS011;49845;47.130;142.766;2023-07-16T07:55:27;3.50;;;1.13;;
63699;SDS011;49845;47.130;142.766;2023-07-16T07:57:58;2.00;;;1.30;;
63699;SDS011;49845;47.130;142.766;2023-07-16T08:00:28;3.97;;;1.80;;
63699;SDS011;49845;47.130;142.766;2023-07-16T08:03:00;3.07;;;1.30;;
63699;SDS011;49845;47.130;142.766;2023-07-16T08:05:32;4.60;;;2.20;;
63699;SDS011;49845;47.130;142.766;2023-07-16T08:08:02;6.27;;;2.40;;
63699;SDS011;49845;47.130;142.766;2023-07-16T08:10:33;6.40;;;2.40;;
63699;SDS011;49845;47.130;142.766;2023-07-16T08:13:04;6.67;;;2.20;;
63699;SDS011;49845;47.130;142.766;2023-07-16T08:15:35;7.50;;;2.20;;
63699;SDS011;49845;47.130;142.766;2023-07-16T08:18:07;5.63;;;2.38;;
63699;SDS011;49845;47.130;142.766;2023-07-16T08:20:38;5.63;;;2.23;;
63699;SDS011;49845;47.130;142.766;2023-07-16T08:23:09;4.70;;;2.80;;
63699;SDS011;49845;47.130;142.766;2023-07-16T08:25:39;10.05;;;2.90;;
63699;SDS011;49845;47.130;142.766;2023-07-16T08:28:12;9.15;;;2.95;;
63699;SDS011;49845;47.130;142.766;2023-07-16T08:30:42;5.60;;;3.08;;
63699;SDS011;49845;47.130;142.766;2023-07-16T08:33:18;37.45;;;3.72;;
63699;SDS011;49845;47.130;142.766;2023-07-16T08:35:49;10.70;;;3.80;;
63699;SDS011;49845;47.130;142.766;2023-07-16T08:38:20;6.45;;;3.55;;
63699;SDS011;49845;47.130;142.766;2023-07-16T08:40:51;6.10;;;3.47;;
63699;SDS011;49845;47.130;142.766;2023-07-16T08:43:22;13.50;;;4.28;;
63699;SDS011;49845;47.130;142.766;2023-07-16T08:45:53;10.65;;;4.25;;
63699;SDS011;49845;47.130;142.766;2023-07-16T08:48:26;11.52;;;5.38;;
63699;SDS011;49845;47.130;142.766;2023-07-16T08:50:58;7.78;;;3.90;;
63699;SDS011;49845;47.130;142.766;2023-07-16T08:53:31;6.33;;;3.10;;
63699;SDS011;49845;47.130;142.766;2023-07-16T08:56:02;6.30;;;3.53;;
63699;SDS011;49845;47.130;142.766;2023-07-16T08:58:33;6.18;;;3.30;;
63699;SDS011;49845;47.130;142.766;2023-07-16T09:01:05;8.48;;;3.90;;
63699;SDS011;49845;47.130;142.766;2023-07-16T09:03:37;9.18;;;3.72;;
63699;SDS011;49845;47.130;142.766;2023-07-16T09:06:09;6.28;;;4.00;;
63699;SDS011;49845;47.130;142.766;2023-07-16T09:08:42;6.70;;;3.75;;
63699;SDS011;49845;47.130;142.766;2023-07-16T09:11:12;9.05;;;4.18;;
63699;SDS011;49845;47.130;142.766;2023-07-16T09:13:49;11.27;;;4.00;;
63699;SDS011;49845;47.130;142.766;2023-07-16T09:16:22;6.57;;;4.00;;
63699;SDS011;49845;47.130;142.766;2023-07-16T09:18:59;6.68;;;3.78;;
63699;SDS011;49845;47.130;142.766;2023-07-16T09:21:49;8.20;;;4.05;;
63699;SDS011;49845;47.130;142.766;2023-07-16T09:24:20;7.75;;;3.90;;
63699;SDS011;49845;47.130;142.766;2023-07-16T09:26:54;6.95;;;4.45;;
63699;SDS011;49845;47.130;142.766;2023-07-16T09:29:26;6.88;;;4.40;;
63699;SDS011;49845;47.130;142.766;2023-07-16T09:32:00;9.27;;;4.35;;
63699;SDS011;49845;47.130;142.766;2023-07-16T09:34:38;9.95;;;4.50;;
63699;SDS011;49845;47.130;142.766;2023-07-16T09:37:09;9.20;;;4.32;;
63699;SDS011;49845;47.130;142.766;2023-07-16T09:39:45;8.38;;;4.68;;
63699;SDS011;49845;47.130;142.766;2023-07-16T09:42:17;9.85;;;4.63;;
63699;SDS011;49845;47.130;142.766;2023-07-16T09:44:51;8.63;;;4.63;;
63699;SDS011;49845;47.130;142.766;2023-07-16T09:47:27;11.57;;;5.97;;
63699;SDS011;49845;47.130;142.766;2023-07-16T09:50:01;9.65;;;5.70;;
63699;SDS011;49845;47.130;142.766;2023-07-16T09:52:32;11.35;;;5.93;;
63699;SDS011;49845;47.130;142.766;2023-07-16T09:55:05;8.68;;;5.22;;
63699;SDS011;49845;47.130;142.766;2023-07-16T09:57:39;8.70;;;5.00;;
63699;SDS011;49845;47.130;142.766;2023-07-16T10:00:13;11.27;;;5.72;;
63699;SDS011;49845;47.130;142.766;2023-07-16T10:02:49;14.18;;;5.70;;
63699;SDS011;49845;47.130;142.766;2023-07-16T10:05:25;7.68;;;4.78;;
63699;SDS011;49845;47.130;142.766;2023-07-16T10:07:58;10.43;;;5.60;;
63699;SDS011;49845;47.130;142.766;2023-07-16T10:10:38;8.27;;;5.50;;
63699;SDS011;49845;47.130;142.766;2023-07-16T10:13:11;12.15;;;6.10;;
63699;SDS011;49845;47.130;142.766;2023-07-16T10:15:53;10.77;;;5.32;;
63699;SDS011;49845;47.130;142.766;2023-07-16T10:18:28;15.60;;;6.50;;
63699;SDS011;49845;47.130;142.766;2023-07-16T10:21:05;10.32;;;6.18;;
63699;SDS011;49845;47.130;142.766;2023-07-16T10:23:37;12.80;;;6.20;;
63699;SDS011;49845;47.130;142.766;2023-07-16T10:26:12;11.63;;;6.55;;
63699;SDS011;49845;47.130;142.766;2023-07-16T10:28:46;13.32;;;6.53;;
63699;SDS011;49845;47.130;142.766;2023-07-16T10:31:18;14.75;;;6.90;;
63699;SDS011;49845;47.130;142.766;2023-07-16T10:33:57;13.13;;;7.15;;
63699;SDS011;49845;47.130;142.766;2023-07-16T10:36:36;14.05;;;6.75;;
63699;SDS011;49845;47.130;142.766;2023-07-16T10:39:08;13.27;;;6.60;;
63699;SDS011;49845;47.130;142.766;2023-07-16T10:41:43;16.25;;;7.50;;
63699;SDS011;49845;47.130;142.766;2023-07-16T10:44:15;11.98;;;6.80;;
63699;SDS011;49845;47.130;142.766;2023-07-16T10:46:47;13.30;;;7.50;;
63699;SDS011;49845;47.130;142.766;2023-07-16T10:49:26;17.25;;;8.10;;
63699;SDS011;49845;47.130;142.766;2023-07-16T10:52:00;16.35;;;7.93;;
63699;SDS011;49845;47.130;142.766;2023-07-16T10:54:33;17.55;;;8.95;;
63699;SDS011;49845;47.130;142.766;2023-07-16T10:57:05;13.90;;;7.82;;
63699;SDS011;49845;47.130;142.766;2023-07-16T10:59:37;14.70;;;7.15;;
63699;SDS011;49845;47.130;142.766;2023-07-16T11:02:11;14.35;;;7.70;;
63699;SDS011;49845;47.130;142.766;2023-07-16T11:04:44;13.88;;;7.90;;
63699;SDS011;49845;47.130;142.766;2023-07-16T11:07:21;18.48;;;7.25;;
63699;SDS011;49845;47.130;142.766;2023-07-16T11:09:53;15.68;;;7.97;;
63699;SDS011;49845;47.130;142.766;2023-07-16T11:12:26;19.50;;;6.88;;
63699;SDS011;49845;47.130;142.766;2023-07-16T11:14:58;14.95;;;8.00;;
63699;SDS011;49845;47.130;142.766;2023-07-16T11:17:30;15.75;;;7.68;;
63699;SDS011;49845;47.130;142.766;2023-07-16T11:20:03;13.77;;;7.03;;
63699;SDS011;49845;47.130;142.766;2023-07-16T11:22:41;16.42;;;7.72;;
63699;SDS011;49845;47.130;142.766;2023-07-16T11:25:18;20.67;;;7.65;;
63699;SDS011;49845;47.130;142.766;2023-07-16T11:27:50;12.13;;;6.70;;
63699;SDS011;49845;47.130;142.766;2023-07-16T11:30:35;17.08;;;7.15;;
63699;SDS011;49845;47.130;142.766;2023-07-16T11:33:09;16.05;;;6.70;;
63699;SDS011;49845;47.130;142.766;2023-07-16T11:35:41;13.82;;;7.22;;
63699;SDS011;49845;47.130;142.766;2023-07-16T11:38:16;14.50;;;6.63;;
63699;SDS011;49845;47.130;142.766;2023-07-16T11:40:49;16.17;;;6.90;;
63699;SDS011;49845;47.130;142.766;2023-07-16T11:43:21;15.82;;;6.25;;
63699;SDS011;49845;47.130;142.766;2023-07-16T11:45:53;16.30;;;6.68;;
63699;SDS011;49845;47.130;142.766;2023-07-16T11:48:24;16.55;;;6.47;;
63699;SDS011;49845;47.130;142.766;2023-07-16T11:50:56;15.98;;;6.22;;
63699;SDS011;49845;47.130;142.766;2023-07-16T11:53:29;14.02;;;6.35;;
63699;SDS011;49845;47.130;142.766;2023-07-16T11:56:07;11.60;;;4.93;;
63699;SDS011;49845;47.130;142.766;2023-07-16T11:58:42;13.75;;;5.55;;
63699;SDS011;49845;47.130;142.766;2023-07-16T12:01:17;11.40;;;5.03;;
63699;SDS011;49845;47.130;142.766;2023-07-16T12:03:49;12.25;;;5.10;;
63699;SDS011;49845;47.130;142.766;2023-07-16T12:06:24;10.77;;;4.78;;
63699;SDS011;49845;47.130;142.766;2023-07-16T12:08:58;9.57;;;4.22;;
63699;SDS011;49845;47.130;142.766;2023-07-16T12:11:29;9.63;;;4.18;;
63699;SDS011;49845;47.130;142.766;2023-07-16T12:14:01;11.90;;;4.53;;
63699;SDS011;49845;47.130;142.766;2023-07-16T12:16:33;10.02;;;4.20;;
63699;SDS011;49845;47.130;142.766;2023-07-16T12:19:06;8.70;;;3.65;;
63699;SDS011;49845;47.130;142.766;2023-07-16T12:21:39;13.95;;;4.22;;
63699;SDS011;49845;47.130;142.766;2023-07-16T12:24:13;6.22;;;3.58;;
63699;SDS011;49845;47.130;142.766;2023-07-16T12:26:44;7.20;;;3.63;;
63699;SDS011;49845;47.130;142.766;2023-07-16T12:29:17;8.55;;;3.45;;
63699;SDS011;49845;47.130;142.766;2023-07-16T12:31:50;13.98;;;3.67;;
63699;SDS011;49845;47.130;142.766;2023-07-16T12:34:21;6.60;;;3.40;;
63699;SDS011;49845;47.130;142.766;2023-07-16T12:36:54;6.70;;;3.58;;
63699;SDS011;49845;47.130;142.766;2023-07-16T12:39:27;7.43;;;3.83;;
63699;SDS011;49845;47.130;142.766;2023-07-16T12:41:59;8.73;;;3.55;;
63699;SDS011;49845;47.130;142.766;2023-07-16T12:44:31;8.07;;;3.45;;
63699;SDS011;49845;47.130;142.766;2023-07-16T12:47:07;8.57;;;3.47;;
63699;SDS011;49845;47.130;142.766;2023-07-16T12:49:40;8.40;;;3.65;;
63699;SDS011;49845;47.130;142.766;2023-07-16T12:52:11;7.57;;;3.75;;
63699;SDS011;49845;47.130;142.766;2023-07-16T12:54:45;10.05;;;3.67;;
63699;SDS011;49845;47.130;142.766;2023-07-16T12:57:21;8.52;;;3.75;;
63699;SDS011;49845;47.130;142.766;2023-07-16T12:59:53;8.77;;;3.30;;
63699;SDS011;49845;47.130;142.766;2023-07-16T13:02:26;8.93;;;4.35;;
63699;SDS011;49845;47.130;142.766;2023-07-16T13:04:58;8.95;;;3.85;;
63699;SDS011;49845;47.130;142.766;2023-07-16T13:07:34;7.68;;;3.17;;
63699;SDS011;49845;47.130;142.766;2023-07-16T13:10:10;10.23;;;3.70;;
63699;SDS011;49845;47.130;142.766;2023-07-16T13:12:50;7.00;;;3.53;;
63699;SDS011;49845;47.130;142.766;2023-07-16T13:15:22;6.95;;;3.13;;
63699;SDS011;49845;47.130;142.766;2023-07-16T13:17:53;8.15;;;3.30;;
63699;SDS011;49845;47.130;142.766;2023-07-16T13:20:26;10.80;;;3.55;;
63699;SDS011;49845;47.130;142.766;2023-07-16T13:23:00;6.78;;;3.70;;
63699;SDS011;49845;47.130;142.766;2023-07-16T13:25:33;4.85;;;3.10;;
63699;SDS011;49845;47.130;142.766;2023-07-16T13:28:06;12.00;;;3.40;;
63699;SDS011;49845;47.130;142.766;2023-07-16T13:30:38;5.50;;;3.17;;
63699;SDS011;49845;47.130;142.766;2023-07-16T13:33:09;6.65;;;2.97;;
63699;SDS011;49845;47.130;142.766;2023-07-16T13:35:41;10.50;;;3.53;;
63699;SDS011;49845;47.130;142.766;2023-07-16T13:38:12;6.32;;;3.00;;
63699;SDS011;49845;47.130;142.766;2023-07-16T13:40:46;6.60;;;3.83;;
63699;SDS011;49845;47.130;142.766;2023-07-16T13:43:17;6.45;;;3.50;;
63699;SDS011;49845;47.130;142.766;2023-07-16T13:45:49;6.63;;;3.45;;
63699;SDS011;49845;47.130;142.766;2023-07-16T13:48:21;8.40;;;3.80;;
63699;SDS011;49845;47.130;142.766;2023-07-16T13:50:52;10.07;;;4.30;;
63699;SDS011;49845;47.130;142.766;2023-07-16T13:53:24;10.63;;;3.42;;
63699;SDS011;49845;47.130;142.766;2023-07-16T13:55:57;9.10;;;3.22;;
63699;SDS011;49845;47.130;142.766;2023-07-16T13:58:29;5.40;;;3.30;;
63699;SDS011;49845;47.130;142.766;2023-07-16T14:01:01;7.63;;;3.35;;
63699;SDS011;49845;47.130;142.766;2023-07-16T14:03:33;4.68;;;2.70;;
63699;SDS011;49845;47.130;142.766;2023-07-16T14:06:05;8.75;;;3.40;;
63699;SDS011;49845;47.130;142.766;2023-07-16T14:08:38;8.23;;;3.15;;
63699;SDS011;49845;47.130;142.766;2023-07-16T14:11:13;7.35;;;3.45;;
63699;SDS011;49845;47.130;142.766;2023-07-16T14:13:46;8.95;;;3.50;;
63699;SDS011;49845;47.130;142.766;2023-07-16T14:16:19;5.72;;;3.25;;
63699;SDS011;49845;47.130;142.766;2023-07-16T14:18:52;6.78;;;3.13;;
63699;SDS011;49845;47.130;142.766;2023-07-16T14:21:24;6.40;;;3.63;;
63699;SDS011;49845;47.130;142.766;2023-07-16T14:23:56;7.32;;;3.40;;
63699;SDS011;49845;47.130;142.766;2023-07-16T14:26:30;8.40;;;3.03;;
63699;SDS011;49845;47.130;142.766;2023-07-16T14:29:01;7.45;;;3.15;;
63699;SDS011;49845;47.130;142.766;2023-07-16T14:31:33;7.32;;;3.40;;
63699;SDS011;49845;47.130;142.766;2023-07-16T14:34:04;10.77;;;3.50;;
63699;SDS011;49845;47.130;142.766;2023-07-16T14:36:36;6.75;;;2.97;;
63699;SDS011;49845;47.130;142.766;2023-07-16T14:39:07;7.55;;;3.00;;
63699;SDS011;49845;47.130;142.766;2023-07-16T14:41:40;5.85;;;3.15;;
63699;SDS011;49845;47.130;142.766;2023-07-16T14:44:12;6.30;;;2.95;;
63699;SDS011;49845;47.130;142.766;2023-07-16T14:46:44;9.73;;;3.90;;
63699;SDS011;49845;47.130;142.766;2023-07-16T14:49:15;4.47;;;2.90;;
63699;SDS011;49845;47.130;142.766;2023-07-16T14:51:47;9.40;;;3.47;;
63699;SDS011;49845;47.130;142.766;2023-07-16T14:54:20;6.82;;;3.53;;